Time;durP1;ratioP1;P1;durP2;ratioP2;P2;SDS_P1;SDS_P2;PMS_P1;PMS_P2;Temp;Humidity;BMP_temperature;BMP_pressure;BME280_temperature;BME280_humidity;BME280_pressure;Samples;Min_cycle;Max_cycle;Signal;HPM_P1;HPM_P2
2023/01/12 00:01:57;;;;;;;3.47;1.55;;;;;;;;;;5075024;28;20219;-84
2023/01/12 00:04:25;;;;;;;2.38;1.35;;;;;;;;;;5074498;28;20203;-84
2023/01/12 00:06:52;;;;;;;3.53;1.52;;;;;;;;;;5074589;28;20224;-84
2023/01/12 00:09:20;;;;;;;1.95;1.25;;;;;;;;;;5073943;28;20245;-84
2023/01/12 00:11:47;;;;;;;2.65;1.58;;;;;;;;;;5074387;28;20201;-83
2023/01/12 00:14:15;;;;;;;2.83;1.30;;;;;;;;;;5074551;28;20201;-84
2023/01/12 00:16:43;;;;;;;5.18;1.52;;;;;;;;;;5074234;28;20946;-84
2023/01/12 00:19:14;;;;;;;1.90;1.20;;;;;;;;;;5074158;28;20312;-83
2023/01/12 00:21:55;;;;;;;3.63;1.60;;;;;;;;;;5074539;28;20634;-84
2023/01/12 00:24:24;;;;;;;1.67;1.10;;;;;;;;;;5074186;28;20244;-84
2023/01/12 00:26:52;;;;;;;3.50;1.70;;;;;;;;;;5074053;28;20207;-84
2023/01/12 00:29:20;;;;;;;3.60;1.63;;;;;;;;;;5077619;28;20234;-84
2023/01/12 00:31:47;;;;;;;3.78;1.70;;;;;;;;;;5094512;28;20600;-84
2023/01/12 00:34:17;;;;;;;8.50;2.30;;;;;;;;;;5094615;28;20201;-85
2023/01/12 00:36:45;;;;;;;4.85;1.65;;;;;;;;;;5094264;28;20758;-84
2023/01/12 00:39:13;;;;;;;4.20;2.05;;;;;;;;;;5092491;28;20259;-84
2023/01/12 00:47:18;;;;;;;1.50;1.15;;;;;;;;;;5082995;28;20212;-83
2023/01/12 00:49:47;;;;;;;3.28;2.08;;;;;;;;;;5093369;28;20216;-84
2023/01/12 00:52:17;;;;;;;3.22;1.58;;;;;;;;;;5093515;28;20250;-83
2023/01/12 00:54:44;;;;;;;3.25;1.40;;;;;;;;;;5093833;28;20200;-84
2023/01/12 00:57:13;;;;;;;4.43;1.75;;;;;;;;;;5093847;28;20220;-84
2023/01/12 00:59:43;;;;;;;2.28;1.40;;;;;;;;;;5092662;28;20235;-84
2023/01/12 01:02:11;;;;;;;3.03;1.52;;;;;;;;;;5093364;28;20313;-84
2023/01/12 01:04:38;;;;;;;2.08;1.05;;;;;;;;;;5093234;28;20207;-84
2023/01/12 01:07:07;;;;;;;5.25;1.50;;;;;;;;;;5093722;28;20759;-84
2023/01/12 01:09:35;;;;;;;3.30;1.27;;;;;;;;;;5092783;28;20235;-84
2023/01/12 01:12:02;;;;;;;1.73;1.40;;;;;;;;;;5093508;28;20227;-84
2023/01/12 01:14:30;;;;;;;4.65;1.80;;;;;;;;;;5093678;28;20200;-83
2023/01/12 01:16:58;;;;;;;3.00;1.30;;;;;;;;;;5093494;28;20210;-84
2023/01/12 01:19:25;;;;;;;2.83;1.35;;;;;;;;;;5091750;28;20311;-85
2023/01/12 01:21:53;;;;;;;2.92;1.25;;;;;;;;;;5093523;28;20239;-84
2023/01/12 01:24:22;;;;;;;4.10;1.50;;;;;;;;;;5092578;28;20239;-84
2023/01/12 01:26:51;;;;;;;6.45;1.98;;;;;;;;;;5093480;28;20201;-84
2023/01/12 01:29:18;;;;;;;4.20;1.27;;;;;;;;;;5088480;28;20236;-83
2023/01/12 01:31:47;;;;;;;2.50;1.33;;;;;;;;;;5072892;28;20193;-84
2023/01/12 01:34:14;;;;;;;4.00;1.20;;;;;;;;;;5073038;28;20831;-85
2023/01/12 01:36:42;;;;;;;1.73;1.10;;;;;;;;;;5073145;28;20288;-84
2023/01/12 01:39:10;;;;;;;2.42;1.30;;;;;;;;;;5071961;28;20224;-84
2023/01/12 01:41:39;;;;;;;3.20;1.10;;;;;;;;;;5073056;28;20201;-84
2023/01/12 01:44:49;;;;;;;2.22;1.67;;;;;;;;;;5073019;28;20289;-84
2023/01/12 01:47:29;;;;;;;3.35;1.40;;;;;;;;;;5072743;28;20318;-84
2023/01/12 01:49:58;;;;;;;2.40;1.30;;;;;;;;;;5071877;28;20229;-85
2023/01/12 01:52:31;;;;;;;4.20;1.80;;;;;;;;;;5072309;28;20291;-84
2023/01/12 01:55:02;;;;;;;2.00;1.33;;;;;;;;;;5072451;28;20208;-84
2023/01/12 01:57:36;;;;;;;4.30;1.63;;;;;;;;;;5072266;28;20258;-83
2023/01/12 02:00:07;;;;;;;4.32;1.80;;;;;;;;;;5081755;28;20230;-83
2023/01/12 02:02:35;;;;;;;1.40;1.30;;;;;;;;;;5092538;28;20273;-84
2023/01/12 02:05:03;;;;;;;2.83;1.42;;;;;;;;;;5091808;28;20204;-83
2023/01/12 02:07:31;;;;;;;6.53;1.88;;;;;;;;;;5092617;28;20216;-84
2023/01/12 02:09:58;;;;;;;3.17;1.30;;;;;;;;;;5092213;28;20410;-85
2023/01/12 02:18:10;;;;;;;1.83;1.35;;;;;;;;;;5091993;28;20207;-84
2023/01/12 02:21:04;;;;;;;2.45;1.20;;;;;;;;;;5092318;28;20199;-84
2023/01/12 02:24:29;;;;;;;1.33;1.00;;;;;;;;;;5092161;28;20206;-84
2023/01/12 02:27:22;;;;;;;5.40;1.73;;;;;;;;;;5092439;28;20194;-84
2023/01/12 02:30:36;;;;;;;2.63;1.30;;;;;;;;;;5091112;28;20232;-84
2023/01/12 02:33:19;;;;;;;2.38;1.27;;;;;;;;;;5092229;28;20180;-84
2023/01/12 02:35:54;;;;;;;3.72;1.40;;;;;;;;;;5092171;28;20591;-84
2023/01/12 02:38:31;;;;;;;1.50;1.10;;;;;;;;;;5091512;28;20312;-84
2023/01/12 02:41:09;;;;;;;2.33;1.42;;;;;;;;;;5091805;28;20204;-84
2023/01/12 02:43:37;;;;;;;4.68;1.83;;;;;;;;;;5092160;28;20462;-84
2023/01/12 02:46:11;;;;;;;1.60;1.20;;;;;;;;;;5092453;28;20207;-83
2023/01/12 02:48:48;;;;;;;1.25;1.15;;;;;;;;;;5091376;28;20227;-84
2023/01/12 02:51:21;;;;;;;1.92;1.35;;;;;;;;;;5091961;28;20192;-84
2023/01/12 02:53:51;;;;;;;3.03;1.33;;;;;;;;;;5091891;28;20224;-84
2023/01/12 02:56:23;;;;;;;1.20;1.08;;;;;;;;;;5091885;28;20820;-84
2023/01/12 02:58:55;;;;;;;1.70;1.00;;;;;;;;;;5091007;28;20770;-83
2023/01/12 03:01:25;;;;;;;1.45;1.08;;;;;;;;;;5071047;28;20292;-83
2023/01/12 03:03:56;;;;;;;2.15;1.02;;;;;;;;;;5073657;28;20212;-84
2023/01/12 03:06:23;;;;;;;1.15;0.90;;;;;;;;;;5075747;28;20209;-85
2023/01/12 03:08:52;;;;;;;4.75;1.23;;;;;;;;;;5074789;28;20221;-84
2023/01/12 03:11:20;;;;;;;5.05;1.50;;;;;;;;;;5075059;28;20673;-84
2023/01/12 03:13:50;;;;;;;1.95;1.20;;;;;;;;;;5075392;28;20209;-84
2023/01/12 03:16:21;;;;;;;2.78;1.60;;;;;;;;;;5075420;28;20197;-84
2023/01/12 03:18:54;;;;;;;4.25;1.20;;;;;;;;;;5074325;28;20219;-83
2023/01/12 03:21:28;;;;;;;2.22;1.02;;;;;;;;;;5075336;28;20292;-84
2023/01/12 03:24:02;;;;;;;1.58;1.00;;;;;;;;;;5075259;28;20207;-84
2023/01/12 03:26:32;;;;;;;2.65;1.65;;;;;;;;;;5075134;28;20205;-84
2023/01/12 03:29:04;;;;;;;1.08;1.00;;;;;;;;;;5075746;28;20224;-84
2023/01/12 03:31:32;;;;;;;3.58;1.40;;;;;;;;;;5095301;28;20825;-83
2023/01/12 03:34:01;;;;;;;1.73;1.00;;;;;;;;;;5095265;28;20206;-84
2023/01/12 03:36:42;;;;;;;4.55;2.00;;;;;;;;;;5095267;28;20294;-84
2023/01/12 03:39:17;;;;;;;1.30;0.90;;;;;;;;;;5094521;28;20307;-84
2023/01/12 03:41:54;;;;;;;1.63;1.10;;;;;;;;;;5095226;28;20198;-84
2023/01/12 03:44:31;;;;;;;0.95;0.70;;;;;;;;;;5095163;28;20675;-84
2023/01/12 03:47:01;;;;;;;2.33;1.00;;;;;;;;;;5095254;28;20241;-83
2023/01/12 03:49:34;;;;;;;1.90;1.33;;;;;;;;;;5094177;28;20231;-84
2023/01/12 03:52:03;;;;;;;1.30;0.90;;;;;;;;;;5095247;28;20196;-84
2023/01/12 03:54:30;;;;;;;1.80;0.93;;;;;;;;;;5095471;28;20207;-84
2023/01/12 03:56:59;;;;;;;1.50;0.88;;;;;;;;;;5094989;28;20231;-84
2023/01/12 03:59:26;;;;;;;1.38;1.27;;;;;;;;;;5094674;28;20223;-84
2023/01/12 04:01:53;;;;;;;1.50;0.98;;;;;;;;;;5094959;28;20305;-84
2023/01/12 04:04:25;;;;;;;3.25;1.10;;;;;;;;;;5094908;28;20676;-84
2023/01/12 04:06:54;;;;;;;1.88;1.00;;;;;;;;;;5093547;28;20291;-84
2023/01/12 04:09:24;;;;;;;1.95;0.80;;;;;;;;;;5094576;28;20228;-84
2023/01/12 04:12:10;;;;;;;1.85;1.10;;;;;;;;;;5094954;28;20303;-84
2023/01/12 04:14:37;;;;;;;3.03;1.63;;;;;;;;;;5095188;28;20196;-84
2023/01/12 04:17:05;;;;;;;1.55;1.05;;;;;;;;;;5095170;28;20206;-84
2023/01/12 04:19:33;;;;;;;1.77;1.00;;;;;;;;;;5094088;28;20239;-84
2023/01/12 04:24:47;;;;;;;1.73;1.38;;;;;;;;;;5095163;28;20249;-84
2023/01/12 04:27:14;;;;;;;2.08;1.33;;;;;;;;;;5094943;28;20588;-84
2023/01/12 04:29:42;;;;;;;3.45;1.20;;;;;;;;;;5093791;28;20232;-84
2023/01/12 04:32:10;;;;;;;1.65;1.00;;;;;;;;;;5094732;28;20294;-84
2023/01/12 04:34:38;;;;;;;1.52;1.00;;;;;;;;;;5094705;28;20643;-84
2023/01/12 04:37:07;;;;;;;1.92;1.17;;;;;;;;;;5094685;28;20234;-84
2023/01/12 04:39:34;;;;;;;1.77;1.20;;;;;;;;;;5094033;28;20689;-84
2023/01/12 04:42:02;;;;;;;3.08;1.23;;;;;;;;;;5094639;28;20326;-84
2023/01/12 04:44:31;;;;;;;1.45;0.80;;;;;;;;;;5094186;28;20200;-84
2023/01/12 04:46:58;;;;;;;2.53;1.17;;;;;;;;;;5094923;28;20207;-84
2023/01/12 04:49:25;;;;;;;3.58;1.30;;;;;;;;;;5093649;28;20226;-84
2023/01/12 04:51:53;;;;;;;1.65;0.90;;;;;;;;;;5094555;28;20751;-84
2023/01/12 04:54:22;;;;;;;2.13;1.38;;;;;;;;;;5094371;28;20203;-83
2023/01/12 04:56:49;;;;;;;1.40;0.90;;;;;;;;;;5094164;28;20238;-84
2023/01/12 04:59:17;;;;;;;1.38;1.27;;;;;;;;;;5093434;28;20328;-84
2023/01/12 05:01:44;;;;;;;2.58;0.90;;;;;;;;;;5093822;28;20196;-84
2023/01/12 05:04:13;;;;;;;1.40;1.00;;;;;;;;;;5093600;28;20279;-84
2023/01/12 05:06:41;;;;;;;2.88;1.58;;;;;;;;;;5093931;28;20206;-83
2023/01/12 05:11:55;;;;;;;2.42;1.30;;;;;;;;;;5093853;28;20273;-83
2023/01/12 05:14:23;;;;;;;1.20;1.10;;;;;;;;;;5094054;28;20200;-83
2023/01/12 05:16:50;;;;;;;4.47;1.23;;;;;;;;;;5093853;28;20311;-83
2023/01/12 05:19:17;;;;;;;1.75;1.10;;;;;;;;;;5092569;28;20305;-84
2023/01/12 05:21:45;;;;;;;4.15;1.55;;;;;;;;;;5093034;28;20207;-84
2023/01/12 05:24:12;;;;;;;0.98;0.90;;;;;;;;;;5093117;28;20204;-84
2023/01/12 05:26:40;;;;;;;2.08;0.80;;;;;;;;;;5092517;28;20664;-84
2023/01/12 05:29:10;;;;;;;2.00;1.23;;;;;;;;;;5091992;28;20295;-84
2023/01/12 05:31:39;;;;;;;6.55;1.67;;;;;;;;;;5093133;28;20224;-84
2023/01/12 05:34:06;;;;;;;2.05;1.27;;;;;;;;;;5093004;28;20200;-83
2023/01/12 05:36:33;;;;;;;1.27;1.08;;;;;;;;;;5092965;28;20272;-85
2023/01/12 05:39:01;;;;;;;1.73;1.02;;;;;;;;;;5092080;28;20330;-83
2023/01/12 05:41:29;;;;;;;1.98;1.60;;;;;;;;;;5096587;28;20215;-85
2023/01/12 05:43:55;;;;;;;2.80;0.90;;;;;;;;;;5095016;28;20220;-84
2023/01/12 05:46:26;;;;;;;2.33;1.30;;;;;;;;;;5094376;28;20734;-84
2023/01/12 05:48:58;;;;;;;2.42;1.23;;;;;;;;;;5093105;28;20228;-84
2023/01/12 05:51:29;;;;;;;2.38;1.35;;;;;;;;;;5092985;28;20226;-85
2023/01/12 05:53:57;;;;;;;2.03;1.25;;;;;;;;;;5093572;28;20207;-85
2023/01/12 05:56:26;;;;;;;2.15;1.40;;;;;;;;;;5093057;28;20287;-86
2023/01/12 05:58:58;;;;;;;1.88;1.00;;;;;;;;;;5092359;28;20284;-84
2023/01/12 06:01:31;;;;;;;3.92;2.38;;;;;;;;;;5092716;28;20200;-84
2023/01/12 06:04:00;;;;;;;5.10;1.45;;;;;;;;;;5092927;28;20204;-85
2023/01/12 06:06:39;;;;;;;2.58;1.40;;;;;;;;;;5093590;28;20204;-84
2023/01/12 06:09:07;;;;;;;3.58;1.42;;;;;;;;;;5092615;28;20277;-85
2023/01/12 06:14:19;;;;;;;1.20;1.05;;;;;;;;;;5091738;28;20334;-85
2023/01/12 06:16:59;;;;;;;1.70;1.30;;;;;;;;;;5087917;28;20291;-84
2023/01/12 06:19:27;;;;;;;2.33;1.10;;;;;;;;;;5086182;28;20222;-83
2023/01/12 06:21:58;;;;;;;3.58;2.13;;;;;;;;;;5091574;28;20202;-86
2023/01/12 06:24:34;;;;;;;2.67;1.42;;;;;;;;;;5091260;28;20249;-87
2023/01/12 06:27:12;;;;;;;3.65;1.45;;;;;;;;;;5091366;28;20207;-85
2023/01/12 06:29:42;;;;;;;3.40;1.60;;;;;;;;;;5083700;28;20324;-85
2023/01/12 06:32:42;;;;;;;2.42;1.25;;;;;;;;;;5070919;28;20225;-86
2023/01/12 06:39:36;;;;;;;1.48;1.38;;;;;;;;;;5166003;22;20253;-86
2023/01/12 06:43:10;;;;;;;2.45;1.40;;;;;;;;;;5091094;28;20196;-87
2023/01/12 06:45:43;;;;;;;1.40;1.00;;;;;;;;;;5055903;28;20294;-84
2023/01/12 06:48:20;;;;;;;3.53;1.60;;;;;;;;;;5090497;28;20634;-85
2023/01/12 06:50:47;;;;;;;3.88;1.50;;;;;;;;;;5090857;28;20281;-84
2023/01/12 06:56:10;;;;;;;1.60;1.27;;;;;;;;;;5088297;28;20277;-84
2023/01/12 06:58:45;;;;;;;2.55;1.65;;;;;;;;;;5090368;28;20238;-85
2023/01/12 07:01:25;;;;;;;1.77;1.60;;;;;;;;;;5051686;28;20235;-85
2023/01/12 07:11:59;;;;;;;5.70;1.73;;;;;;;;;;5046702;28;20224;-86
2023/01/12 07:14:59;;;;;;;1.45;1.35;;;;;;;;;;5052619;28;20319;-87
2023/01/12 07:28:44;;;;;;;2.75;1.63;;;;;;;;;;4949083;28;20212;-86
2023/01/12 07:31:19;;;;;;;1.83;1.73;;;;;;;;;;5008059;28;20245;-86
2023/01/12 07:33:49;;;;;;;1.92;1.00;;;;;;;;;;5008874;28;20261;-86
2023/01/12 07:36:17;;;;;;;1.45;1.10;;;;;;;;;;5028393;28;20201;-86
2023/01/12 07:38:44;;;;;;;1.45;1.33;;;;;;;;;;5028375;28;20601;-85
2023/01/12 07:44:07;;;;;;;2.28;1.50;;;;;;;;;;5051690;28;20184;-86
2023/01/12 07:46:35;;;;;;;2.00;1.90;;;;;;;;;;5087880;28;20238;-85
2023/01/12 07:49:03;;;;;;;1.83;0.98;;;;;;;;;;5088406;28;20744;-87
2023/01/12 07:51:31;;;;;;;0.90;0.90;;;;;;;;;;5074803;28;20239;-87
2023/01/12 07:54:01;;;;;;;1.95;1.67;;;;;;;;;;5074424;28;20288;-88
2023/01/12 07:56:30;;;;;;;1.70;1.00;;;;;;;;;;5074084;28;20200;-87
2023/01/12 07:58:58;;;;;;;3.13;1.40;;;;;;;;;;5073269;28;20308;-89
2023/01/12 08:01:26;;;;;;;1.60;1.30;;;;;;;;;;5054987;28;20612;-88
2023/01/12 08:03:56;;;;;;;1.38;1.10;;;;;;;;;;5055313;28;20639;-88
2023/01/12 08:06:23;;;;;;;2.50;1.02;;;;;;;;;;5054983;28;20289;-88
2023/01/12 08:09:00;;;;;;;0.93;0.90;;;;;;;;;;5054544;28;20630;-88
2023/01/12 08:11:30;;;;;;;1.50;1.20;;;;;;;;;;5055206;28;20686;-88
2023/01/12 08:14:05;;;;;;;2.22;1.33;;;;;;;;;;5055124;28;20201;-88
2023/01/12 08:16:44;;;;;;;1.27;0.80;;;;;;;;;;5054972;28;20259;-88
2023/01/12 08:19:37;;;;;;;0.98;0.85;;;;;;;;;;5055072;28;20225;-88
2023/01/12 08:22:10;;;;;;;0.73;0.73;;;;;;;;;;5054953;28;20628;-88
2023/01/12 08:24:42;;;;;;;0.50;0.50;;;;;;;;;;5054689;28;20285;-88
2023/01/12 08:27:11;;;;;;;1.75;0.90;;;;;;;;;;5054668;28;20205;-88
2023/01/12 08:29:43;;;;;;;1.88;1.00;;;;;;;;;;5053818;28;20221;-87
2023/01/12 08:32:19;;;;;;;0.80;0.80;;;;;;;;;;5055180;28;20221;-89
2023/01/12 08:34:51;;;;;;;0.80;0.80;;;;;;;;;;5054469;28;20244;-88
2023/01/12 08:37:22;;;;;;;0.65;0.65;;;;;;;;;;5054802;28;20609;-88
2023/01/12 08:39:56;;;;;;;1.55;0.70;;;;;;;;;;5053724;28;20324;-87
2023/01/12 08:42:39;;;;;;;1.55;0.68;;;;;;;;;;5054020;28;20592;-88
2023/01/12 08:45:08;;;;;;;0.63;0.63;;;;;;;;;;5068317;28;20588;-87
2023/01/12 08:47:39;;;;;;;0.50;0.50;;;;;;;;;;5094506;28;20228;-88
2023/01/12 08:50:14;;;;;;;0.75;0.50;;;;;;;;;;5093330;28;20231;-89
2023/01/12 08:52:41;;;;;;;0.98;0.50;;;;;;;;;;5094538;28;20311;-88
2023/01/12 08:55:10;;;;;;;1.00;0.70;;;;;;;;;;5094561;28;20732;-88
2023/01/12 08:57:40;;;;;;;1.65;0.70;;;;;;;;;;5094490;28;20211;-87
2023/01/12 09:00:12;;;;;;;2.13;1.05;;;;;;;;;;5081791;28;20271;-89
2023/01/12 09:02:40;;;;;;;0.45;0.45;;;;;;;;;;5073959;28;20737;-88
2023/01/12 09:05:11;;;;;;;0.50;0.50;;;;;;;;;;5073787;28;20223;-88
2023/01/12 09:07:41;;;;;;;0.30;0.30;;;;;;;;;;5074768;28;20197;-88
2023/01/12 09:10:24;;;;;;;0.50;0.50;;;;;;;;;;5074421;28;20233;-88
2023/01/12 09:13:01;;;;;;;0.88;0.60;;;;;;;;;;5074694;28;20607;-88
2023/01/12 09:15:42;;;;;;;1.38;0.50;;;;;;;;;;5074682;28;20213;-88
2023/01/12 09:18:39;;;;;;;0.47;0.47;;;;;;;;;;5073448;28;20217;-87
2023/01/12 09:21:09;;;;;;;1.08;0.70;;;;;;;;;;5072690;28;20211;-89
2023/01/12 09:23:37;;;;;;;2.97;0.80;;;;;;;;;;5074785;28;20207;-89
2023/01/12 09:26:06;;;;;;;0.80;0.80;;;;;;;;;;5074114;28;20211;-88
2023/01/12 09:28:35;;;;;;;2.20;1.67;;;;;;;;;;5072217;28;20319;-87
2023/01/12 09:31:05;;;;;;;0.43;0.43;;;;;;;;;;5073150;28;20280;-88
2023/01/12 09:33:33;;;;;;;0.80;0.80;;;;;;;;;;5073061;28;20255;-89
2023/01/12 09:36:02;;;;;;;0.80;0.45;;;;;;;;;;5073449;28;20288;-90
2023/01/12 09:38:30;;;;;;;0.60;0.60;;;;;;;;;;5073499;28;20303;-88
2023/01/12 09:40:59;;;;;;;0.63;0.63;;;;;;;;;;5073358;28;20582;-89
2023/01/12 09:49:18;;;;;;;0.82;0.70;;;;;;;;;;5075123;28;20219;-89
2023/01/12 09:51:54;;;;;;;0.57;0.57;;;;;;;;;;5073280;28;20672;-87
2023/01/12 09:54:21;;;;;;;2.03;1.92;;;;;;;;;;5073642;28;20224;-87
2023/01/12 09:57:08;;;;;;;0.65;0.55;;;;;;;;;;5075281;28;20645;-85
2023/01/12 09:59:44;;;;;;;0.30;0.30;;;;;;;;;;5066969;28;20229;-86
2023/01/12 10:02:14;;;;;;;0.60;0.60;;;;;;;;;;5053609;28;20560;-86
2023/01/12 10:04:42;;;;;;;0.60;0.60;;;;;;;;;;5053676;28;20297;-86
2023/01/12 10:07:14;;;;;;;0.73;0.60;;;;;;;;;;5053327;28;20618;-86
2023/01/12 10:09:42;;;;;;;0.80;0.80;;;;;;;;;;5080333;28;20534;-86
2023/01/12 10:12:21;;;;;;;0.40;0.40;;;;;;;;;;5080007;28;20228;-86
2023/01/12 10:15:12;;;;;;;0.57;0.57;;;;;;;;;;5081335;28;20360;-86
2023/01/12 10:17:49;;;;;;;0.77;0.77;;;;;;;;;;5087714;28;20224;-87
2023/01/12 10:20:23;;;;;;;0.43;0.43;;;;;;;;;;5092405;28;20287;-86
2023/01/12 10:22:53;;;;;;;0.50;0.50;;;;;;;;;;5075019;28;20205;-86
2023/01/12 10:25:34;;;;;;;1.40;0.60;;;;;;;;;;5090859;28;20204;-87
2023/01/12 10:28:10;;;;;;;1.00;0.68;;;;;;;;;;5091152;28;20257;-86
2023/01/12 10:30:40;;;;;;;0.70;0.63;;;;;;;;;;5077157;28;20296;-87
2023/01/12 10:33:15;;;;;;;0.50;0.50;;;;;;;;;;5071026;28;20213;-86
2023/01/12 10:35:53;;;;;;;0.47;0.47;;;;;;;;;;5071460;28;20630;-87
2023/01/12 10:38:25;;;;;;;0.47;0.47;;;;;;;;;;5070956;28;20705;-86
2023/01/12 10:41:15;;;;;;;0.43;0.43;;;;;;;;;;5071756;28;20729;-86
2023/01/12 10:43:46;;;;;;;0.70;0.70;;;;;;;;;;5070371;28;20254;-86
2023/01/12 10:46:16;;;;;;;0.68;0.50;;;;;;;;;;5074752;28;20287;-87
2023/01/12 10:48:47;;;;;;;0.52;0.52;;;;;;;;;;5070960;28;20236;-86
2023/01/12 10:51:27;;;;;;;1.30;0.52;;;;;;;;;;5071415;28;20235;-86
2023/01/12 10:53:59;;;;;;;0.75;0.60;;;;;;;;;;5072121;28;20200;-87
2023/01/12 10:56:35;;;;;;;0.73;0.70;;;;;;;;;;5071790;28;20250;-86
2023/01/12 10:59:15;;;;;;;0.47;0.47;;;;;;;;;;5069507;28;20731;-86
2023/01/12 11:01:48;;;;;;;0.60;0.60;;;;;;;;;;5051874;28;20209;-86
2023/01/12 11:04:21;;;;;;;0.55;0.50;;;;;;;;;;5051581;28;20201;-86
2023/01/12 11:07:00;;;;;;;0.55;0.50;;;;;;;;;;5052076;28;20698;-89
2023/01/12 11:09:37;;;;;;;1.30;0.60;;;;;;;;;;5052011;28;20248;-85
2023/01/12 11:12:19;;;;;;;0.55;0.55;;;;;;;;;;5052346;28;20185;-86
2023/01/12 11:15:00;;;;;;;0.60;0.60;;;;;;;;;;5056423;28;20216;-86
2023/01/12 11:17:46;;;;;;;0.50;0.50;;;;;;;;;;5071853;28;20209;-86
2023/01/12 11:20:23;;;;;;;0.57;0.52;;;;;;;;;;5071208;28;20185;-86
2023/01/12 11:22:54;;;;;;;0.73;0.73;;;;;;;;;;5072307;28;20189;-87
2023/01/12 11:25:24;;;;;;;0.55;0.40;;;;;;;;;;5076060;28;20196;-85
2023/01/12 11:27:57;;;;;;;0.63;0.63;;;;;;;;;;5077209;28;20236;-86
2023/01/12 11:30:29;;;;;;;0.73;0.68;;;;;;;;;;5075544;28;20669;-86
2023/01/12 11:33:07;;;;;;;0.50;0.50;;;;;;;;;;5076025;28;20188;-87
2023/01/12 11:35:40;;;;;;;0.43;0.43;;;;;;;;;;5076619;28;20309;-85
2023/01/12 11:38:13;;;;;;;0.68;0.68;;;;;;;;;;5075410;28;20313;-86
2023/01/12 11:40:41;;;;;;;0.70;0.70;;;;;;;;;;5075618;28;20212;-85
2023/01/12 11:46:25;;;;;;;0.50;0.50;;;;;;;;;;5014044;28;20967;-84
2023/01/12 11:49:02;;;;;;;0.40;0.40;;;;;;;;;;5062341;28;20267;-86
2023/01/12 11:51:31;;;;;;;1.10;0.63;;;;;;;;;;5075366;28;20210;-85
2023/01/12 11:53:59;;;;;;;0.60;0.60;;;;;;;;;;5075488;28;20209;-86
2023/01/12 11:56:52;;;;;;;0.93;0.65;;;;;;;;;;5075591;28;20752;-86
2023/01/12 11:59:27;;;;;;;0.68;0.60;;;;;;;;;;5073187;28;20265;-85
2023/01/12 12:02:04;;;;;;;0.60;0.60;;;;;;;;;;5075488;28;20279;-86
2023/01/12 12:04:51;;;;;;;0.20;0.20;;;;;;;;;;5076256;28;20215;-84
2023/01/12 12:07:49;;;;;;;1.00;0.98;;;;;;;;;;5091477;28;20275;-85
2023/01/12 12:10:22;;;;;;;0.82;0.40;;;;;;;;;;5095231;28;20204;-85
2023/01/12 12:13:23;;;;;;;0.52;0.52;;;;;;;;;;5095433;28;20200;-86
2023/01/12 12:15:59;;;;;;;0.25;0.25;;;;;;;;;;5074815;28;20214;-85
2023/01/12 12:18:39;;;;;;;0.55;0.55;;;;;;;;;;5075083;28;20594;-86
2023/01/12 12:21:14;;;;;;;0.40;0.40;;;;;;;;;;5074448;28;20220;-86
2023/01/12 12:23:53;;;;;;;0.55;0.43;;;;;;;;;;5074947;28;20672;-86
2023/01/12 12:26:26;;;;;;;0.60;0.60;;;;;;;;;;5074712;28;20272;-86
2023/01/12 12:29:10;;;;;;;1.00;0.77;;;;;;;;;;5091251;28;20307;-86
2023/01/12 12:31:55;;;;;;;0.65;0.60;;;;;;;;;;5074607;28;20284;-87
2023/01/12 12:34:51;;;;;;;0.77;0.77;;;;;;;;;;5075000;28;20245;-86
2023/01/12 12:37:34;;;;;;;0.50;0.50;;;;;;;;;;5067850;28;20600;-88
2023/01/12 12:40:13;;;;;;;1.30;0.50;;;;;;;;;;5086214;28;20316;-86
2023/01/12 12:45:43;;;;;;;0.50;0.50;;;;;;;;;;5083669;28;20703;-87
2023/01/12 12:48:15;;;;;;;0.40;0.40;;;;;;;;;;5072888;28;20247;-87
2023/01/12 12:50:55;;;;;;;0.43;0.43;;;;;;;;;;5078688;28;20296;-87
2023/01/12 12:53:30;;;;;;;0.35;0.35;;;;;;;;;;5078237;28;20303;-86
2023/01/12 12:56:01;;;;;;;0.40;0.40;;;;;;;;;;5072732;28;20216;-86
2023/01/12 12:58:43;;;;;;;0.40;0.40;;;;;;;;;;5072897;28;20224;-86
2023/01/12 13:01:55;;;;;;;0.40;0.40;;;;;;;;;;5055772;28;20296;-87
2023/01/12 13:05:00;;;;;;;0.47;0.47;;;;;;;;;;5052439;28;20306;-87
2023/01/12 13:07:28;;;;;;;0.45;0.45;;;;;;;;;;5053231;28;20213;-87
2023/01/12 13:10:25;;;;;;;0.57;0.55;;;;;;;;;;5052374;28;20633;-87
2023/01/12 13:13:24;;;;;;;0.30;0.30;;;;;;;;;;5048129;28;20206;-87
2023/01/12 13:16:45;;;;;;;0.52;0.52;;;;;;;;;;5078606;28;20726;-86
2023/01/12 13:19:30;;;;;;;0.65;0.63;;;;;;;;;;5021916;28;20226;-86
2023/01/12 13:21:59;;;;;;;0.38;0.38;;;;;;;;;;5011067;28;20199;-87
2023/01/12 13:24:41;;;;;;;0.50;0.50;;;;;;;;;;5047221;28;20553;-86
2023/01/12 13:27:51;;;;;;;0.85;0.60;;;;;;;;;;5073926;28;20193;-86
2023/01/12 13:30:51;;;;;;;0.45;0.45;;;;;;;;;;5084785;28;20200;-87
2023/01/12 13:33:27;;;;;;;0.80;0.60;;;;;;;;;;5094138;28;20295;-88
2023/01/12 13:36:10;;;;;;;0.40;0.40;;;;;;;;;;5094159;28;20219;-86
2023/01/12 13:39:05;;;;;;;0.40;0.40;;;;;;;;;;5093536;28;20251;-86
2023/01/12 13:44:25;;;;;;;0.50;0.50;;;;;;;;;;5086453;28;20226;-86
2023/01/12 13:47:04;;;;;;;0.40;0.40;;;;;;;;;;5051083;28;20573;-86
2023/01/12 13:49:33;;;;;;;0.20;0.20;;;;;;;;;;5051243;28;20231;-86
2023/01/12 13:52:05;;;;;;;0.35;0.35;;;;;;;;;;5052004;28;20205;-86
2023/01/12 13:54:34;;;;;;;0.40;0.40;;;;;;;;;;5052065;28;20287;-87
2023/01/12 13:57:09;;;;;;;0.45;0.45;;;;;;;;;;5052702;28;20196;-87
2023/01/12 13:59:37;;;;;;;0.40;0.40;;;;;;;;;;5081047;28;20257;-88
2023/01/12 14:02:17;;;;;;;0.50;0.50;;;;;;;;;;5072141;28;20299;-87
2023/01/12 14:05:04;;;;;;;0.57;0.57;;;;;;;;;;5071170;28;20216;-89
2023/01/12 14:07:49;;;;;;;0.50;0.50;;;;;;;;;;5073546;28;20582;-87
2023/01/12 14:10:28;;;;;;;0.63;0.63;;;;;;;;;;5064218;28;20209;-89
2023/01/12 14:13:35;;;;;;;0.52;0.52;;;;;;;;;;5071106;28;20760;-87
2023/01/12 14:18:51;;;;;;;0.95;0.50;;;;;;;;;;5091273;28;20706;-86
2023/01/12 14:21:24;;;;;;;0.30;0.30;;;;;;;;;;5091351;28;20279;-87
2023/01/12 14:23:53;;;;;;;0.40;0.40;;;;;;;;;;5091947;28;20211;-87
2023/01/12 14:26:25;;;;;;;0.55;0.55;;;;;;;;;;5091749;28;20307;-85
2023/01/12 14:28:54;;;;;;;0.40;0.40;;;;;;;;;;5091025;28;20224;-86
2023/01/12 14:31:30;;;;;;;0.40;0.40;;;;;;;;;;5071286;28;20211;-88
2023/01/12 14:34:02;;;;;;;0.60;0.50;;;;;;;;;;5071817;28;20208;-88
2023/01/12 14:36:33;;;;;;;0.35;0.35;;;;;;;;;;5071572;28;20219;-89
2023/01/12 14:39:05;;;;;;;0.40;0.40;;;;;;;;;;5070816;28;20232;-87
2023/01/12 14:47:06;;;;;;;0.40;0.40;;;;;;;;;;5071466;28;20216;-87
2023/01/12 14:49:41;;;;;;;0.73;0.73;;;;;;;;;;5070696;28;20266;-88
2023/01/12 14:52:30;;;;;;;0.63;0.50;;;;;;;;;;5071879;28;20208;-86
2023/01/12 14:55:17;;;;;;;0.40;0.40;;;;;;;;;;5072290;28;20205;-88
2023/01/12 14:57:49;;;;;;;0.30;0.30;;;;;;;;;;5070995;28;20215;-87
2023/01/12 15:00:22;;;;;;;0.30;0.30;;;;;;;;;;5058141;28;20220;-86
2023/01/12 15:02:51;;;;;;;0.52;0.52;;;;;;;;;;5051058;28;20324;-87
2023/01/12 15:05:25;;;;;;;0.50;0.50;;;;;;;;;;5051298;28;20229;-89
2023/01/12 15:07:58;;;;;;;0.52;0.52;;;;;;;;;;5051043;28;20228;-89
2023/01/12 15:10:31;;;;;;;0.47;0.47;;;;;;;;;;5051066;28;20221;-87
2023/01/12 15:13:12;;;;;;;0.90;0.73;;;;;;;;;;5051299;28;20182;-87
2023/01/12 15:27:03;;;;;;;0.40;0.40;;;;;;;;;;5091155;28;20203;-86
2023/01/12 15:29:37;;;;;;;1.27;0.52;;;;;;;;;;5084016;28;20232;-87
2023/01/12 15:32:05;;;;;;;0.32;0.32;;;;;;;;;;5064088;28;20193;-87
2023/01/12 15:34:34;;;;;;;0.70;0.70;;;;;;;;;;5070067;28;20288;-87
2023/01/12 15:37:02;;;;;;;0.52;0.52;;;;;;;;;;5069820;28;20221;-87
2023/01/12 15:39:30;;;;;;;0.55;0.55;;;;;;;;;;5069506;28;20665;-88
2023/01/12 15:42:16;;;;;;;0.60;0.60;;;;;;;;;;5070244;28;20275;-87
2023/01/12 15:44:44;;;;;;;0.47;0.47;;;;;;;;;;5069760;28;20199;-87
2023/01/12 15:47:12;;;;;;;0.32;0.32;;;;;;;;;;5070475;28;20639;-88
2023/01/12 15:49:40;;;;;;;1.02;0.55;;;;;;;;;;5071020;28;20229;-88
2023/01/12 15:52:13;;;;;;;0.50;0.50;;;;;;;;;;5089475;28;20211;-87
2023/01/12 15:54:40;;;;;;;0.43;0.43;;;;;;;;;;5080361;28;20656;-87
2023/01/12 15:57:10;;;;;;;0.55;0.55;;;;;;;;;;5089923;28;20224;-88
2023/01/12 15:59:38;;;;;;;0.40;0.40;;;;;;;;;;5083268;28;20232;-86
2023/01/12 16:02:24;;;;;;;0.47;0.47;;;;;;;;;;5069950;28;20765;-87
2023/01/12 16:04:52;;;;;;;0.60;0.60;;;;;;;;;;5069939;28;20224;-87
2023/01/12 16:07:21;;;;;;;0.52;0.52;;;;;;;;;;5069996;28;20297;-87
2023/01/12 16:09:49;;;;;;;0.40;0.40;;;;;;;;;;5070212;28;20216;-87
2023/01/12 16:12:18;;;;;;;0.93;0.60;;;;;;;;;;5073380;28;20212;-88
2023/01/12 16:14:45;;;;;;;0.68;0.68;;;;;;;;;;5078336;28;20215;-86
2023/01/12 16:17:13;;;;;;;1.45;0.38;;;;;;;;;;5093914;28;20230;-88
2023/01/12 16:19:41;;;;;;;0.40;0.40;;;;;;;;;;5093455;28;20226;-89
2023/01/12 16:22:14;;;;;;;0.55;0.55;;;;;;;;;;5093481;28;20196;-87
2023/01/12 16:24:43;;;;;;;0.40;0.40;;;;;;;;;;5094517;28;20206;-89
2023/01/12 16:27:11;;;;;;;0.30;0.30;;;;;;;;;;5094645;28;20250;-89
2023/01/12 16:29:38;;;;;;;0.30;0.30;;;;;;;;;;5087645;28;20220;-88
2023/01/12 16:32:07;;;;;;;0.45;0.45;;;;;;;;;;5074215;28;20219;-89
2023/01/12 16:34:35;;;;;;;0.30;0.30;;;;;;;;;;5074944;28;20284;-88
2023/01/12 16:37:03;;;;;;;0.63;0.63;;;;;;;;;;5074355;28;20251;-88
2023/01/12 16:39:31;;;;;;;0.52;0.52;;;;;;;;;;5073252;28;20315;-88
2023/01/12 16:42:02;;;;;;;0.32;0.32;;;;;;;;;;5074450;28;20208;-89
2023/01/12 16:44:31;;;;;;;0.47;0.47;;;;;;;;;;5074446;28;20563;-89
2023/01/12 16:46:58;;;;;;;0.50;0.50;;;;;;;;;;5074092;28;20199;-90